createdAt,value
2022-10-31T00:01:06.447Z,99114.32
2022-10-31T00:06:19.149Z,99115.77
2022-10-31T00:11:22.551Z,99108.63
2022-10-31T00:16:26.058Z,99110.61
2022-10-31T00:21:29.471Z,99109.45
2022-10-31T00:26:32.893Z,99108.30
2022-10-31T00:31:36.333Z,99112.59
2022-10-31T00:36:39.756Z,99110.73
2022-10-31T00:41:43.137Z,99110.10
2022-10-31T00:46:46.573Z,99112.98
2022-10-31T00:51:50.339Z,99111.81
2022-10-31T00:56:53.775Z,99114.17
2022-10-31T01:01:57.227Z,99118.11
2022-10-31T01:07:00.763Z,99117.27
2022-10-31T01:12:06.157Z,99122.77
2022-10-31T01:17:09.707Z,99118.13
2022-10-31T01:22:13.208Z,99117.08
2022-10-31T01:27:16.580Z,99117.27
2022-10-31T01:32:20.065Z,99119.61
2022-10-31T01:37:23.434Z,99115.79
2022-10-31T01:42:26.981Z,99107.37
2022-10-31T01:47:30.358Z,99110.92
2022-10-31T01:52:33.717Z,99110.00
2022-10-31T01:57:37.101Z,99110.80
2022-10-31T02:02:40.664Z,99107.48
2022-10-31T02:07:44.314Z,99110.34
2022-10-31T02:12:47.796Z,99106.30
2022-10-31T02:17:51.148Z,99105.30
2022-10-31T02:22:54.528Z,99105.25
2022-10-31T02:27:58.141Z,99103.84
2022-10-31T02:33:02.141Z,99112.89
2022-10-31T02:38:05.919Z,99117.13
2022-10-31T02:43:09.310Z,99121.70
2022-10-31T02:48:12.709Z,99120.77
2022-10-31T02:53:16.091Z,99122.90
2022-10-31T03:03:27.722Z,99131.06
2022-10-31T03:08:31.072Z,99133.24
2022-10-31T03:13:34.465Z,99131.05
2022-10-31T03:18:38.023Z,99132.13
2022-10-31T03:23:41.466Z,99134.17
2022-10-31T03:28:44.829Z,99137.90
2022-10-31T03:33:48.189Z,99133.33
2022-10-31T03:38:51.555Z,99136.02
2022-10-31T03:43:54.992Z,99143.70
2022-10-31T03:48:58.337Z,99147.23
2022-10-31T03:54:01.724Z,99147.45
2022-10-31T03:59:05.088Z,99149.93
2022-10-31T04:04:08.471Z,99151.39
2022-10-31T04:09:11.819Z,99153.89
2022-10-31T04:14:17.213Z,99161.14
2022-10-31T04:19:21.181Z,99160.34
2022-10-31T04:24:24.564Z,99162.85
2022-10-31T04:29:28.012Z,99165.34
2022-10-31T04:34:31.417Z,99170.52
2022-10-31T04:39:34.760Z,99167.06
2022-10-31T04:44:38.122Z,99169.39
2022-10-31T04:49:41.483Z,99167.63
2022-10-31T04:54:44.833Z,99167.81
2022-10-31T04:59:48.317Z,99168.89
2022-10-31T05:04:51.692Z,99167.34
2022-10-31T05:09:55.186Z,99166.52
2022-10-31T05:14:58.584Z,99169.19
2022-10-31T05:20:02.003Z,99168.78
2022-10-31T05:25:05.402Z,99168.59
2022-10-31T05:30:08.862Z,99169.73
2022-10-31T05:35:12.313Z,99176.05
2022-10-31T05:40:15.648Z,99180.62
2022-10-31T05:45:19.004Z,99186.48
2022-10-31T05:50:22.381Z,99193.58
2022-10-31T05:55:26.691Z,99197.61
2022-10-31T06:00:30.064Z,99202.52
2022-10-31T06:05:33.427Z,99207.64
2022-10-31T06:10:37.354Z,99213.21
2022-10-31T06:15:40.732Z,99218.34
2022-10-31T06:20:44.135Z,99221.86
2022-10-31T06:25:47.546Z,99220.31
2022-10-31T06:30:50.920Z,99217.45
2022-10-31T06:35:54.408Z,99220.48
2022-10-31T06:40:57.772Z,99220.79
2022-10-31T06:46:01.230Z,99225.42
2022-10-31T06:51:04.739Z,99227.77
2022-10-31T06:56:08.117Z,99234.95
2022-10-31T07:01:11.623Z,99239.33
2022-10-31T07:06:23.529Z,99238.88
2022-10-31T07:11:27.005Z,99242.73
2022-10-31T07:16:30.513Z,99238.38
2022-10-31T07:21:33.882Z,99241.52
2022-10-31T07:26:37.414Z,99243.12
2022-10-31T07:31:40.879Z,99248.09
2022-10-31T07:36:44.282Z,99251.41
2022-10-31T07:41:47.669Z,99255.89
2022-10-31T07:46:51.091Z,99250.78
2022-10-31T07:51:54.524Z,99254.89
2022-10-31T07:56:57.879Z,99256.83
2022-10-31T08:02:01.470Z,99258.56
2022-10-31T08:07:04.852Z,99260.91
2022-10-31T08:12:08.218Z,99257.94
2022-10-31T08:17:11.577Z,99253.98
2022-10-31T08:22:16.990Z,99253.89
2022-10-31T08:27:20.374Z,99252.66
2022-10-31T08:32:23.757Z,99255.24
2022-10-31T08:37:27.121Z,99254.05
2022-10-31T08:42:30.485Z,99251.27
2022-10-31T08:47:33.852Z,99252.84
2022-10-31T08:52:59.266Z,99250.71
2022-10-31T08:58:01.134Z,99251.10
2022-10-31T09:03:04.828Z,99250.83
2022-10-31T09:08:13.096Z,99259.59
2022-10-31T09:13:20.448Z,99263.02
2022-10-31T09:18:23.966Z,99260.26
2022-10-31T09:23:27.314Z,99256.63
2022-10-31T09:28:30.718Z,99257.86
2022-10-31T09:33:34.197Z,99266.24
2022-10-31T09:38:37.559Z,99267.56
2022-10-31T09:43:41.117Z,99264.06
2022-10-31T09:48:44.742Z,99266.47
2022-10-31T09:53:48.142Z,99258.10
2022-10-31T09:58:51.518Z,99257.64
2022-10-31T10:03:54.868Z,99256.34
2022-10-31T10:08:58.235Z,99259.17
2022-10-31T10:14:01.617Z,99259.00
2022-10-31T10:19:04.996Z,99260.47
2022-10-31T10:24:08.475Z,99255.21
2022-10-31T10:29:11.846Z,99251.31
2022-10-31T10:34:15.309Z,99247.80
2022-10-31T10:39:18.660Z,99243.42
2022-10-31T10:44:22.022Z,99240.07
2022-10-31T10:49:25.390Z,99240.45
2022-10-31T10:54:28.860Z,99237.30
2022-10-31T10:59:32.289Z,99234.91
2022-10-31T11:04:35.643Z,99232.23
2022-10-31T11:09:39.008Z,99235.03
2022-10-31T11:14:42.365Z,99230.80
2022-10-31T11:19:45.832Z,99227.39
2022-10-31T11:24:49.282Z,99224.10
2022-10-31T11:29:55.697Z,99218.60
2022-10-31T11:35:03.375Z,99212.27
2022-10-31T11:40:06.780Z,99210.13
2022-10-31T11:45:10.188Z,99207.16
2022-10-31T11:50:13.542Z,99211.90
2022-10-31T11:55:16.961Z,99212.13
2022-10-31T12:00:20.443Z,99209.70
2022-10-31T12:05:24.071Z,99208.86
2022-10-31T12:10:27.464Z,99206.68
2022-10-31T12:15:30.832Z,99200.66
2022-10-31T12:20:34.181Z,99197.44
2022-10-31T12:25:37.543Z,99194.47
2022-10-31T12:30:40.915Z,99189.86
2022-10-31T12:35:44.434Z,99188.59
2022-10-31T12:40:47.808Z,99188.86
2022-10-31T12:45:51.504Z,99182.33
2022-10-31T12:50:54.861Z,99179.45
2022-10-31T12:55:58.359Z,99179.05
2022-10-31T13:01:01.799Z,99178.56
2022-10-31T13:06:05.595Z,99168.20
2022-10-31T13:11:09.004Z,99170.27
2022-10-31T13:16:12.406Z,99172.20
2022-10-31T13:21:15.825Z,99172.30
2022-10-31T13:26:19.186Z,99171.86
2022-10-31T13:31:22.663Z,99171.47
2022-10-31T13:36:26.129Z,99167.59
2022-10-31T13:41:32.203Z,99171.63
2022-10-31T13:46:35.670Z,99169.73
2022-10-31T13:51:40.134Z,99167.65
2022-10-31T13:56:43.488Z,99165.24
2022-10-31T14:01:47.286Z,99166.52
2022-10-31T14:06:50.808Z,99166.73
2022-10-31T14:11:54.501Z,99162.96
2022-10-31T14:16:58.320Z,99159.15
2022-10-31T14:22:01.694Z,99159.40
2022-10-31T14:27:05.119Z,99156.58
2022-10-31T14:32:12.273Z,99155.40
2022-10-31T14:37:16.729Z,99149.08
2022-10-31T14:42:20.335Z,99150.16
2022-10-31T14:47:23.716Z,99147.03
2022-10-31T14:52:27.077Z,99148.05
2022-10-31T14:57:30.725Z,99142.98
2022-10-31T15:02:35.762Z,99139.05
2022-10-31T15:07:41.095Z,99137.77
2022-10-31T15:12:44.517Z,99135.13
2022-10-31T15:17:50.209Z,99134.27
2022-10-31T15:22:53.744Z,99136.47
2022-10-31T15:27:57.174Z,99134.71
2022-10-31T15:33:00.599Z,99138.36
2022-10-31T15:38:05.288Z,99138.52
2022-10-31T15:43:08.949Z,99143.11
2022-10-31T15:48:12.346Z,99141.05
2022-10-31T15:53:15.773Z,99145.88
2022-10-31T15:58:19.274Z,99144.23
2022-10-31T16:03:22.720Z,99144.00
2022-10-31T16:08:26.289Z,99145.14
2022-10-31T16:13:29.701Z,99147.88
2022-10-31T16:18:33.087Z,99150.66
2022-10-31T16:23:36.506Z,99155.44
2022-10-31T16:28:40.372Z,99158.80
2022-10-31T16:33:45.017Z,99158.02
2022-10-31T16:38:48.407Z,99164.89
2022-10-31T16:43:52.615Z,99163.17
2022-10-31T16:48:56.202Z,99163.16
2022-10-31T16:53:59.637Z,99168.41
2022-10-31T16:59:03.060Z,99164.95
2022-10-31T17:04:06.428Z,99162.52
2022-10-31T17:09:09.797Z,99164.52
2022-10-31T17:14:13.172Z,99164.33
2022-10-31T17:19:16.692Z,99165.20
2022-10-31T17:24:20.311Z,99163.13
2022-10-31T17:29:23.711Z,99167.48
2022-10-31T17:34:27.179Z,99172.23
2022-10-31T17:39:30.704Z,99170.66
2022-10-31T17:44:34.137Z,99171.61
2022-10-31T17:49:37.525Z,99172.48
2022-10-31T17:54:40.951Z,99168.23
2022-10-31T17:59:44.328Z,99167.75
2022-10-31T18:04:47.764Z,99163.52
2022-10-31T18:09:51.305Z,99162.77
2022-10-31T18:14:54.739Z,99156.73
2022-10-31T18:19:58.137Z,99160.30
2022-10-31T18:25:02.283Z,99162.32
2022-10-31T18:30:06.224Z,99165.25
2022-10-31T18:35:09.648Z,99159.41
2022-10-31T18:40:13.313Z,99162.65
2022-10-31T18:45:32.643Z,99162.23
2022-10-31T18:50:40.110Z,99169.91
2022-10-31T18:55:47.245Z,99169.95
2022-10-31T19:00:53.597Z,99161.92
2022-10-31T19:05:57.674Z,99158.48
2022-10-31T19:11:01.120Z,99155.52
2022-10-31T19:16:04.766Z,99152.13
2022-10-31T19:21:08.225Z,99144.47
2022-10-31T19:26:11.728Z,99143.55
2022-10-31T19:31:15.140Z,99136.03
2022-10-31T19:36:19.164Z,99132.36
2022-10-31T19:41:22.602Z,99134.66
2022-10-31T19:46:52.402Z,99137.50
2022-10-31T19:51:49.493Z,99143.16
2022-10-31T19:56:52.912Z,99140.19
2022-10-31T20:01:56.405Z,99137.38
2022-10-31T20:06:59.788Z,99129.48
2022-10-31T20:12:03.282Z,99126.90
2022-10-31T20:17:06.692Z,99129.02
2022-10-31T20:22:11.000Z,99124.29
2022-10-31T20:27:14.694Z,99125.73
2022-10-31T20:32:18.091Z,99125.19
2022-10-31T20:37:21.588Z,99124.27
2022-10-31T20:42:25.095Z,99123.67
2022-10-31T20:47:28.477Z,99117.00
2022-10-31T20:52:31.868Z,99110.51
2022-10-31T20:57:35.227Z,99103.40
2022-10-31T21:02:38.823Z,99105.02
2022-10-31T21:07:42.354Z,99107.13
2022-10-31T21:12:45.780Z,99102.02
2022-10-31T21:17:49.212Z,99102.74
2022-10-31T21:22:54.611Z,99100.33
2022-10-31T21:27:58.237Z,99093.63
2022-10-31T21:33:01.789Z,99083.67
2022-10-31T21:38:05.147Z,99074.95
2022-10-31T21:43:08.638Z,99075.70
2022-10-31T21:48:12.024Z,99073.61
2022-10-31T21:53:33.288Z,99072.23
2022-10-31T21:58:38.562Z,99068.38
2022-10-31T22:03:42.224Z,99066.67
2022-10-31T22:08:45.690Z,99061.91
2022-10-31T22:13:49.131Z,99061.16
2022-10-31T22:18:52.885Z,99056.98
2022-10-31T22:23:56.257Z,99049.31
2022-10-31T22:29:01.247Z,99039.84
2022-10-31T22:34:04.631Z,99036.02
2022-10-31T22:39:08.013Z,99032.04
2022-10-31T22:44:11.379Z,99029.45
2022-10-31T22:49:15.248Z,99024.09
2022-10-31T22:54:18.819Z,99025.36
2022-10-31T22:59:22.215Z,99025.76
2022-10-31T23:04:25.603Z,99022.61
2022-10-31T23:09:30.069Z,99019.69
2022-10-31T23:14:33.508Z,99014.45
2022-10-31T23:19:36.893Z,99013.94
2022-10-31T23:24:40.262Z,99009.36
2022-10-31T23:29:44.299Z,99007.63
2022-10-31T23:34:47.699Z,99010.73
2022-10-31T23:39:51.062Z,99009.36
2022-10-31T23:44:54.458Z,98996.70
2022-10-31T23:49:58.001Z,98995.15
2022-10-31T23:55:01.380Z,98990.46
